sensor_id;sensor_type;location;lat;lon;timestamp;P1;durP1;ratioP1;P2;durP2;ratioP2
9322;SDS011;4700;48.822;9.270;2022-09-12T00:02:07;9.10;;;8.30;;
9322;SDS011;4700;48.822;9.270;2022-09-12T00:04:53;10.30;;;9.00;;
9322;SDS011;4700;48.822;9.270;2022-09-12T00:07:40;10.97;;;9.90;;
9322;SDS011;4700;48.822;9.270;2022-09-12T00:10:25;11.97;;;10.97;;
9322;SDS011;4700;48.822;9.270;2022-09-12T00:13:11;11.33;;;10.03;;
9322;SDS011;4700;48.822;9.270;2022-09-12T00:15:56;11.43;;;10.20;;
9322;SDS011;4700;48.822;9.270;2022-09-12T00:18:42;11.03;;;10.03;;
9322;SDS011;4700;48.822;9.270;2022-09-12T00:21:30;9.43;;;8.47;;
9322;SDS011;4700;48.822;9.270;2022-09-12T00:24:18;10.00;;;9.10;;
9322;SDS011;4700;48.822;9.270;2022-09-12T00:27:03;10.23;;;9.30;;
9322;SDS011;4700;48.822;9.270;2022-09-12T00:29:49;9.57;;;8.73;;
9322;SDS011;4700;48.822;9.270;2022-09-12T00:32:35;9.50;;;8.60;;
9322;SDS011;4700;48.822;9.270;2022-09-12T00:35:20;9.40;;;8.60;;
9322;SDS011;4700;48.822;9.270;2022-09-12T00:38:06;9.80;;;8.83;;
9322;SDS011;4700;48.822;9.270;2022-09-12T00:40:53;9.83;;;8.93;;
9322;SDS011;4700;48.822;9.270;2022-09-12T00:43:40;10.70;;;9.70;;
9322;SDS011;4700;48.822;9.270;2022-09-12T00:46:29;10.00;;;9.00;;
9322;SDS011;4700;48.822;9.270;2022-09-12T00:49:20;11.00;;;9.90;;
9322;SDS011;4700;48.822;9.270;2022-09-12T00:52:08;10.30;;;9.27;;
9322;SDS011;4700;48.822;9.270;2022-09-12T00:54:57;9.33;;;8.63;;
9322;SDS011;4700;48.822;9.270;2022-09-12T00:57:49;10.60;;;9.50;;
9322;SDS011;4700;48.822;9.270;2022-09-12T01:00:37;10.67;;;9.50;;
9322;SDS011;4700;48.822;9.270;2022-09-12T01:03:23;11.07;;;9.90;;
9322;SDS011;4700;48.822;9.270;2022-09-12T01:06:11;10.60;;;9.67;;
9322;SDS011;4700;48.822;9.270;2022-09-12T01:09:00;10.23;;;9.27;;
9322;SDS011;4700;48.822;9.270;2022-09-12T01:11:47;11.77;;;10.57;;
9322;SDS011;4700;48.822;9.270;2022-09-12T01:14:36;10.33;;;9.43;;
9322;SDS011;4700;48.822;9.270;2022-09-12T01:17:23;12.57;;;10.80;;
9322;SDS011;4700;48.822;9.270;2022-09-12T01:23:53;11.73;;;10.50;;
9322;SDS011;4700;48.822;9.270;2022-09-12T01:30:46;11.13;;;10.13;;
9322;SDS011;4700;48.822;9.270;2022-09-12T01:33:39;10.87;;;9.87;;
9322;SDS011;4700;48.822;9.270;2022-09-12T01:36:38;10.50;;;9.40;;
9322;SDS011;4700;48.822;9.270;2022-09-12T01:39:28;11.20;;;10.10;;
9322;SDS011;4700;48.822;9.270;2022-09-12T01:42:23;13.27;;;10.53;;
9322;SDS011;4700;48.822;9.270;2022-09-12T01:45:15;9.57;;;8.57;;
9322;SDS011;4700;48.822;9.270;2022-09-12T01:48:09;12.27;;;11.17;;
9322;SDS011;4700;48.822;9.270;2022-09-12T01:51:00;10.53;;;9.63;;
9322;SDS011;4700;48.822;9.270;2022-09-12T01:53:52;14.40;;;10.50;;
9322;SDS011;4700;48.822;9.270;2022-09-12T01:56:42;13.27;;;11.37;;
9322;SDS011;4700;48.822;9.270;2022-09-12T01:59:29;11.60;;;10.40;;
9322;SDS011;4700;48.822;9.270;2022-09-12T02:02:20;13.47;;;12.20;;
9322;SDS011;4700;48.822;9.270;2022-09-12T02:05:13;14.53;;;12.17;;
9322;SDS011;4700;48.822;9.270;2022-09-12T02:08:05;13.90;;;12.50;;
9322;SDS011;4700;48.822;9.270;2022-09-12T02:10:54;13.23;;;11.93;;
9322;SDS011;4700;48.822;9.270;2022-09-12T02:13:43;14.23;;;12.83;;
9322;SDS011;4700;48.822;9.270;2022-09-12T02:16:32;14.17;;;12.77;;
9322;SDS011;4700;48.822;9.270;2022-09-12T02:19:22;14.83;;;13.07;;
9322;SDS011;4700;48.822;9.270;2022-09-12T02:22:12;14.17;;;12.90;;
9322;SDS011;4700;48.822;9.270;2022-09-12T02:25:01;14.97;;;12.60;;
9322;SDS011;4700;48.822;9.270;2022-09-12T02:27:50;12.70;;;11.40;;
9322;SDS011;4700;48.822;9.270;2022-09-12T02:30:39;14.70;;;13.30;;
9322;SDS011;4700;48.822;9.270;2022-09-12T02:33:29;13.00;;;11.73;;
9322;SDS011;4700;48.822;9.270;2022-09-12T02:36:26;14.87;;;13.10;;
9322;SDS011;4700;48.822;9.270;2022-09-12T02:39:23;13.93;;;12.53;;
9322;SDS011;4700;48.822;9.270;2022-09-12T02:42:09;15.23;;;13.80;;
9322;SDS011;4700;48.822;9.270;2022-09-12T02:44:55;15.70;;;12.97;;
9322;SDS011;4700;48.822;9.270;2022-09-12T02:47:43;14.13;;;12.50;;
9322;SDS011;4700;48.822;9.270;2022-09-12T02:50:32;14.80;;;12.67;;
9322;SDS011;4700;48.822;9.270;2022-09-12T02:53:18;13.23;;;11.93;;
9322;SDS011;4700;48.822;9.270;2022-09-12T02:56:06;12.93;;;11.33;;
9322;SDS011;4700;48.822;9.270;2022-09-12T02:59:03;14.30;;;12.97;;
9322;SDS011;4700;48.822;9.270;2022-09-12T03:01:56;12.20;;;11.00;;
9322;SDS011;4700;48.822;9.270;2022-09-12T03:04:57;13.30;;;12.00;;
9322;SDS011;4700;48.822;9.270;2022-09-12T03:08:11;12.90;;;11.70;;
9322;SDS011;4700;48.822;9.270;2022-09-12T03:11:12;12.43;;;11.20;;
9322;SDS011;4700;48.822;9.270;2022-09-12T03:14:20;13.23;;;12.03;;
9322;SDS011;4700;48.822;9.270;2022-09-12T03:17:16;13.10;;;11.80;;
9322;SDS011;4700;48.822;9.270;2022-09-12T03:20:12;11.77;;;10.67;;
9322;SDS011;4700;48.822;9.270;2022-09-12T03:23:02;13.20;;;11.90;;
9322;SDS011;4700;48.822;9.270;2022-09-12T03:25:54;13.83;;;12.43;;
9322;SDS011;4700;48.822;9.270;2022-09-12T03:28:47;12.00;;;10.80;;
9322;SDS011;4700;48.822;9.270;2022-09-12T03:31:34;13.97;;;12.53;;
9322;SDS011;4700;48.822;9.270;2022-09-12T03:34:22;13.47;;;12.17;;
9322;SDS011;4700;48.822;9.270;2022-09-12T03:37:09;12.33;;;11.10;;
9322;SDS011;4700;48.822;9.270;2022-09-12T03:39:55;13.67;;;12.37;;
9322;SDS011;4700;48.822;9.270;2022-09-12T03:42:42;13.00;;;11.70;;
9322;SDS011;4700;48.822;9.270;2022-09-12T03:45:29;11.83;;;10.73;;
9322;SDS011;4700;48.822;9.270;2022-09-12T03:48:15;13.37;;;11.93;;
9322;SDS011;4700;48.822;9.270;2022-09-12T03:51:01;14.53;;;13.13;;
9322;SDS011;4700;48.822;9.270;2022-09-12T03:53:47;11.53;;;10.43;;
9322;SDS011;4700;48.822;9.270;2022-09-12T03:56:33;12.27;;;11.00;;
9322;SDS011;4700;48.822;9.270;2022-09-12T03:59:19;13.00;;;11.50;;
9322;SDS011;4700;48.822;9.270;2022-09-12T04:02:06;12.10;;;10.90;;
9322;SDS011;4700;48.822;9.270;2022-09-12T04:04:55;12.57;;;11.33;;
9322;SDS011;4700;48.822;9.270;2022-09-12T04:07:45;11.63;;;10.53;;
9322;SDS011;4700;48.822;9.270;2022-09-12T04:10:31;13.10;;;11.80;;
9322;SDS011;4700;48.822;9.270;2022-09-12T04:13:16;13.40;;;12.20;;
9322;SDS011;4700;48.822;9.270;2022-09-12T04:16:03;11.10;;;9.97;;
9322;SDS011;4700;48.822;9.270;2022-09-12T04:18:51;12.77;;;11.40;;
9322;SDS011;4700;48.822;9.270;2022-09-12T04:21:37;12.57;;;11.37;;
9322;SDS011;4700;48.822;9.270;2022-09-12T04:24:24;12.80;;;11.47;;
9322;SDS011;4700;48.822;9.270;2022-09-12T04:27:10;12.97;;;11.67;;
9322;SDS011;4700;48.822;9.270;2022-09-12T04:29:55;18.97;;;14.07;;
9322;SDS011;4700;48.822;9.270;2022-09-12T04:32:42;15.53;;;13.30;;
9322;SDS011;4700;48.822;9.270;2022-09-12T04:35:29;16.70;;;13.53;;
9322;SDS011;4700;48.822;9.270;2022-09-12T04:38:17;16.67;;;13.53;;
9322;SDS011;4700;48.822;9.270;2022-09-12T04:41:09;16.53;;;14.83;;
9322;SDS011;4700;48.822;9.270;2022-09-12T04:43:56;16.33;;;13.37;;
9322;SDS011;4700;48.822;9.270;2022-09-12T04:46:45;15.73;;;14.07;;
9322;SDS011;4700;48.822;9.270;2022-09-12T04:49:31;20.43;;;15.07;;
9322;SDS011;4700;48.822;9.270;2022-09-12T04:52:18;16.37;;;13.60;;
9322;SDS011;4700;48.822;9.270;2022-09-12T04:55:05;17.87;;;16.00;;
9322;SDS011;4700;48.822;9.270;2022-09-12T04:57:51;15.53;;;13.53;;
9322;SDS011;4700;48.822;9.270;2022-09-12T05:00:36;16.27;;;14.67;;
9322;SDS011;4700;48.822;9.270;2022-09-12T05:03:22;14.97;;;13.17;;
9322;SDS011;4700;48.822;9.270;2022-09-12T05:06:08;13.10;;;11.90;;
9322;SDS011;4700;48.822;9.270;2022-09-12T05:08:57;14.20;;;12.80;;
9322;SDS011;4700;48.822;9.270;2022-09-12T05:11:43;14.53;;;13.13;;
9322;SDS011;4700;48.822;9.270;2022-09-12T05:14:29;14.57;;;13.17;;
9322;SDS011;4700;48.822;9.270;2022-09-12T05:17:15;15.67;;;13.97;;
9322;SDS011;4700;48.822;9.270;2022-09-12T05:20:01;16.53;;;14.97;;
9322;SDS011;4700;48.822;9.270;2022-09-12T05:22:47;15.20;;;12.93;;
9322;SDS011;4700;48.822;9.270;2022-09-12T05:25:34;15.77;;;13.63;;
9322;SDS011;4700;48.822;9.270;2022-09-12T05:28:20;16.40;;;14.03;;
9322;SDS011;4700;48.822;9.270;2022-09-12T05:31:09;16.27;;;13.57;;
9322;SDS011;4700;48.822;9.270;2022-09-12T05:33:56;22.00;;;14.40;;
9322;SDS011;4700;48.822;9.270;2022-09-12T05:36:42;13.70;;;12.10;;
9322;SDS011;4700;48.822;9.270;2022-09-12T05:39:28;15.17;;;13.53;;
9322;SDS011;4700;48.822;9.270;2022-09-12T05:42:15;20.67;;;16.23;;
9322;SDS011;4700;48.822;9.270;2022-09-12T05:45:01;18.13;;;14.57;;
9322;SDS011;4700;48.822;9.270;2022-09-12T05:47:46;15.10;;;13.50;;
9322;SDS011;4700;48.822;9.270;2022-09-12T05:50:32;13.37;;;12.07;;
9322;SDS011;4700;48.822;9.270;2022-09-12T05:53:18;17.33;;;15.40;;
9322;SDS011;4700;48.822;9.270;2022-09-12T05:56:04;37.07;;;16.87;;
9322;SDS011;4700;48.822;9.270;2022-09-12T05:58:54;25.93;;;15.53;;
9322;SDS011;4700;48.822;9.270;2022-09-12T06:01:40;17.40;;;12.83;;
9322;SDS011;4700;48.822;9.270;2022-09-12T06:04:27;17.60;;;14.90;;
9322;SDS011;4700;48.822;9.270;2022-09-12T06:07:13;13.23;;;11.83;;
9322;SDS011;4700;48.822;9.270;2022-09-12T06:10:01;13.50;;;12.20;;
9322;SDS011;4700;48.822;9.270;2022-09-12T06:12:48;13.17;;;11.50;;
9322;SDS011;4700;48.822;9.270;2022-09-12T06:15:35;14.40;;;12.13;;
9322;SDS011;4700;48.822;9.270;2022-09-12T06:18:21;18.27;;;12.37;;
9322;SDS011;4700;48.822;9.270;2022-09-12T06:21:07;13.83;;;12.40;;
9322;SDS011;4700;48.822;9.270;2022-09-12T06:23:56;12.97;;;11.60;;
9322;SDS011;4700;48.822;9.270;2022-09-12T06:26:42;11.80;;;10.70;;
9322;SDS011;4700;48.822;9.270;2022-09-12T06:29:28;11.20;;;10.00;;
9322;SDS011;4700;48.822;9.270;2022-09-12T06:32:16;13.77;;;11.87;;
9322;SDS011;4700;48.822;9.270;2022-09-12T06:35:02;13.10;;;9.37;;
9322;SDS011;4700;48.822;9.270;2022-09-12T06:37:48;16.63;;;11.43;;
9322;SDS011;4700;48.822;9.270;2022-09-12T06:40:40;11.93;;;10.83;;
9322;SDS011;4700;48.822;9.270;2022-09-12T06:43:27;13.67;;;12.17;;
9322;SDS011;4700;48.822;9.270;2022-09-12T06:46:10;14.27;;;12.87;;
9322;SDS011;4700;48.822;9.270;2022-09-12T06:48:58;13.63;;;12.23;;
9322;SDS011;4700;48.822;9.270;2022-09-12T06:51:44;12.40;;;10.07;;
9322;SDS011;4700;48.822;9.270;2022-09-12T06:54:30;12.37;;;11.10;;
9322;SDS011;4700;48.822;9.270;2022-09-12T06:57:19;10.43;;;9.33;;
9322;SDS011;4700;48.822;9.270;2022-09-12T07:00:05;11.50;;;10.30;;
9322;SDS011;4700;48.822;9.270;2022-09-12T07:02:52;10.37;;;9.40;;
9322;SDS011;4700;48.822;9.270;2022-09-12T07:05:40;9.47;;;8.67;;
9322;SDS011;4700;48.822;9.270;2022-09-12T07:08:26;8.57;;;7.67;;
9322;SDS011;4700;48.822;9.270;2022-09-12T07:11:15;7.60;;;6.80;;
9322;SDS011;4700;48.822;9.270;2022-09-12T07:14:03;8.30;;;7.53;;
9322;SDS011;4700;48.822;9.270;2022-09-12T07:16:50;7.27;;;6.60;;
9322;SDS011;4700;48.822;9.270;2022-09-12T07:19:36;6.37;;;5.77;;
9322;SDS011;4700;48.822;9.270;2022-09-12T07:22:23;6.57;;;6.07;;
9322;SDS011;4700;48.822;9.270;2022-09-12T07:25:09;7.03;;;6.33;;
9322;SDS011;4700;48.822;9.270;2022-09-12T07:27:55;6.77;;;5.90;;
9322;SDS011;4700;48.822;9.270;2022-09-12T07:30:40;6.97;;;6.47;;
9322;SDS011;4700;48.822;9.270;2022-09-12T07:33:26;6.70;;;6.17;;
9322;SDS011;4700;48.822;9.270;2022-09-12T07:36:13;6.50;;;5.90;;
9322;SDS011;4700;48.822;9.270;2022-09-12T07:39:01;6.23;;;5.73;;
9322;SDS011;4700;48.822;9.270;2022-09-12T07:41:47;7.27;;;6.67;;
9322;SDS011;4700;48.822;9.270;2022-09-12T07:44:33;6.40;;;5.90;;
9322;SDS011;4700;48.822;9.270;2022-09-12T07:47:21;5.60;;;5.20;;
9322;SDS011;4700;48.822;9.270;2022-09-12T07:50:07;6.37;;;5.70;;
9322;SDS011;4700;48.822;9.270;2022-09-12T07:52:56;6.03;;;5.60;;
9322;SDS011;4700;48.822;9.270;2022-09-12T07:55:45;5.50;;;5.10;;
9322;SDS011;4700;48.822;9.270;2022-09-12T07:58:40;6.60;;;6.10;;
9322;SDS011;4700;48.822;9.270;2022-09-12T08:01:27;7.20;;;6.60;;
9322;SDS011;4700;48.822;9.270;2022-09-12T08:04:15;7.20;;;6.70;;
9322;SDS011;4700;48.822;9.270;2022-09-12T08:07:17;10.83;;;9.57;;
9322;SDS011;4700;48.822;9.270;2022-09-12T08:10:05;8.23;;;7.57;;
9322;SDS011;4700;48.822;9.270;2022-09-12T08:12:54;6.70;;;6.20;;
9322;SDS011;4700;48.822;9.270;2022-09-12T08:15:42;8.63;;;7.83;;
9322;SDS011;4700;48.822;9.270;2022-09-12T08:18:35;6.30;;;5.90;;
9322;SDS011;4700;48.822;9.270;2022-09-12T08:21:28;7.07;;;6.47;;
9322;SDS011;4700;48.822;9.270;2022-09-12T08:24:15;33.40;;;17.30;;
9322;SDS011;4700;48.822;9.270;2022-09-12T08:27:01;8.90;;;6.57;;
9322;SDS011;4700;48.822;9.270;2022-09-12T08:29:49;5.70;;;5.20;;
9322;SDS011;4700;48.822;9.270;2022-09-12T08:32:35;6.20;;;5.80;;
9322;SDS011;4700;48.822;9.270;2022-09-12T08:35:22;7.67;;;6.97;;
9322;SDS011;4700;48.822;9.270;2022-09-12T08:38:08;8.37;;;7.67;;
9322;SDS011;4700;48.822;9.270;2022-09-12T08:40:56;9.07;;;8.00;;
9322;SDS011;4700;48.822;9.270;2022-09-12T08:43:51;6.57;;;6.10;;
9322;SDS011;4700;48.822;9.270;2022-09-12T08:46:34;11.50;;;9.33;;
9322;SDS011;4700;48.822;9.270;2022-09-12T08:49:31;18.73;;;12.20;;
9322;SDS011;4700;48.822;9.270;2022-09-12T08:52:22;5.43;;;5.03;;
9322;SDS011;4700;48.822;9.270;2022-09-12T08:55:21;12.30;;;7.17;;
9322;SDS011;4700;48.822;9.270;2022-09-12T08:58:11;4.63;;;3.83;;
9322;SDS011;4700;48.822;9.270;2022-09-12T09:01:00;6.00;;;5.20;;
9322;SDS011;4700;48.822;9.270;2022-09-12T09:04:05;8.33;;;6.93;;
9322;SDS011;4700;48.822;9.270;2022-09-12T09:07:19;5.00;;;4.50;;
9322;SDS011;4700;48.822;9.270;2022-09-12T09:10:37;4.57;;;3.40;;
9322;SDS011;4700;48.822;9.270;2022-09-12T09:13:34;4.00;;;3.60;;
9322;SDS011;4700;48.822;9.270;2022-09-12T09:16:49;3.20;;;2.97;;
9322;SDS011;4700;48.822;9.270;2022-09-12T09:19:42;11.67;;;7.10;;
9322;SDS011;4700;48.822;9.270;2022-09-12T09:22:35;4.10;;;3.77;;
9322;SDS011;4700;48.822;9.270;2022-09-12T09:25:33;4.73;;;4.33;;
9322;SDS011;4700;48.822;9.270;2022-09-12T09:28:29;5.33;;;4.90;;
9322;SDS011;4700;48.822;9.270;2022-09-12T09:31:21;5.00;;;4.60;;
9322;SDS011;4700;48.822;9.270;2022-09-12T09:34:09;3.40;;;3.10;;
9322;SDS011;4700;48.822;9.270;2022-09-12T09:37:01;4.03;;;3.47;;
9322;SDS011;4700;48.822;9.270;2022-09-12T09:39:58;3.93;;;3.63;;
9322;SDS011;4700;48.822;9.270;2022-09-12T09:42:54;3.50;;;3.23;;
9322;SDS011;4700;48.822;9.270;2022-09-12T09:45:46;9.33;;;5.53;;
9322;SDS011;4700;48.822;9.270;2022-09-12T09:48:33;17.03;;;10.87;;
9322;SDS011;4700;48.822;9.270;2022-09-12T09:51:23;13.90;;;7.70;;
9322;SDS011;4700;48.822;9.270;2022-09-12T09:54:16;9.57;;;5.97;;
9322;SDS011;4700;48.822;9.270;2022-09-12T09:57:16;7.50;;;4.53;;
9322;SDS011;4700;48.822;9.270;2022-09-12T10:00:25;5.57;;;3.70;;
9322;SDS011;4700;48.822;9.270;2022-09-12T10:06:25;5.80;;;5.10;;
9322;SDS011;4700;48.822;9.270;2022-09-12T10:09:19;8.27;;;4.57;;
9322;SDS011;4700;48.822;9.270;2022-09-12T10:12:19;4.33;;;3.93;;
9322;SDS011;4700;48.822;9.270;2022-09-12T10:15:15;28.80;;;15.43;;
9322;SDS011;4700;48.822;9.270;2022-09-12T10:18:01;5.23;;;4.37;;
9322;SDS011;4700;48.822;9.270;2022-09-12T10:20:50;3.70;;;3.40;;
9322;SDS011;4700;48.822;9.270;2022-09-12T10:23:37;4.00;;;3.70;;
9322;SDS011;4700;48.822;9.270;2022-09-12T10:26:29;12.20;;;7.30;;
9322;SDS011;4700;48.822;9.270;2022-09-12T10:29:24;9.87;;;7.00;;
9322;SDS011;4700;48.822;9.270;2022-09-12T10:32:21;4.73;;;4.27;;
9322;SDS011;4700;48.822;9.270;2022-09-12T10:35:15;20.83;;;10.30;;
9322;SDS011;4700;48.822;9.270;2022-09-12T10:38:06;4.90;;;4.07;;
9322;SDS011;4700;48.822;9.270;2022-09-12T10:41:06;9.80;;;6.17;;
9322;SDS011;4700;48.822;9.270;2022-09-12T10:43:59;4.63;;;4.33;;
9322;SDS011;4700;48.822;9.270;2022-09-12T10:46:52;3.90;;;3.60;;
9322;SDS011;4700;48.822;9.270;2022-09-12T10:49:38;4.67;;;4.37;;
9322;SDS011;4700;48.822;9.270;2022-09-12T10:52:25;4.57;;;3.47;;
9322;SDS011;4700;48.822;9.270;2022-09-12T10:55:14;4.77;;;3.73;;
9322;SDS011;4700;48.822;9.270;2022-09-12T10:58:06;4.60;;;3.87;;
9322;SDS011;4700;48.822;9.270;2022-09-12T11:01:11;5.30;;;3.93;;
9322;SDS011;4700;48.822;9.270;2022-09-12T11:04:19;3.53;;;3.33;;
9322;SDS011;4700;48.822;9.270;2022-09-12T11:07:20;6.87;;;3.33;;
9322;SDS011;4700;48.822;9.270;2022-09-12T11:10:28;12.43;;;6.97;;
9322;SDS011;4700;48.822;9.270;2022-09-12T11:13:25;6.60;;;5.50;;
9322;SDS011;4700;48.822;9.270;2022-09-12T11:16:26;3.50;;;3.20;;
9322;SDS011;4700;48.822;9.270;2022-09-12T11:22:47;5.20;;;4.70;;
9322;SDS011;4700;48.822;9.270;2022-09-12T11:25:49;9.37;;;6.63;;
9322;SDS011;4700;48.822;9.270;2022-09-12T11:28:46;3.30;;;3.10;;
9322;SDS011;4700;48.822;9.270;2022-09-12T11:31:53;6.00;;;3.40;;
9322;SDS011;4700;48.822;9.270;2022-09-12T11:34:56;7.27;;;4.70;;
9322;SDS011;4700;48.822;9.270;2022-09-12T11:37:50;4.37;;;3.63;;
9322;SDS011;4700;48.822;9.270;2022-09-12T11:40:55;9.47;;;6.57;;
9322;SDS011;4700;48.822;9.270;2022-09-12T11:43:45;5.83;;;4.23;;
9322;SDS011;4700;48.822;9.270;2022-09-12T11:46:35;24.37;;;12.73;;
9322;SDS011;4700;48.822;9.270;2022-09-12T11:49:26;3.77;;;3.47;;
9322;SDS011;4700;48.822;9.270;2022-09-12T11:52:17;5.60;;;3.27;;
9322;SDS011;4700;48.822;9.270;2022-09-12T11:55:10;12.70;;;6.90;;
9322;SDS011;4700;48.822;9.270;2022-09-12T11:58:01;4.00;;;3.67;;
9322;SDS011;4700;48.822;9.270;2022-09-12T12:00:48;4.10;;;2.60;;
9322;SDS011;4700;48.822;9.270;2022-09-12T12:03:38;2.70;;;2.50;;
9322;SDS011;4700;48.822;9.270;2022-09-12T12:06:30;10.80;;;4.80;;
9322;SDS011;4700;48.822;9.270;2022-09-12T12:09:20;1.90;;;1.80;;
9322;SDS011;4700;48.822;9.270;2022-09-12T12:12:07;6.33;;;2.50;;
9322;SDS011;4700;48.822;9.270;2022-09-12T12:14:59;2.93;;;2.63;;
9322;SDS011;4700;48.822;9.270;2022-09-12T12:17:52;5.30;;;4.80;;
9322;SDS011;4700;48.822;9.270;2022-09-12T12:20:46;3.87;;;3.50;;
9322;SDS011;4700;48.822;9.270;2022-09-12T12:23:33;18.37;;;6.53;;
9322;SDS011;4700;48.822;9.270;2022-09-12T12:29:39;2.07;;;1.70;;
9322;SDS011;4700;48.822;9.270;2022-09-12T12:32:26;2.10;;;1.90;;
9322;SDS011;4700;48.822;9.270;2022-09-12T12:38:29;3.10;;;1.90;;
9322;SDS011;4700;48.822;9.270;2022-09-12T12:41:42;8.13;;;3.13;;
9322;SDS011;4700;48.822;9.270;2022-09-12T12:47:17;24.27;;;6.20;;
9322;SDS011;4700;48.822;9.270;2022-09-12T12:50:06;3.97;;;2.43;;
9322;SDS011;4700;48.822;9.270;2022-09-12T12:52:57;4.10;;;2.53;;
9322;SDS011;4700;48.822;9.270;2022-09-12T12:55:46;3.83;;;2.47;;
9322;SDS011;4700;48.822;9.270;2022-09-12T12:58:35;3.00;;;1.60;;
9322;SDS011;4700;48.822;9.270;2022-09-12T13:01:23;3.17;;;2.43;;
9322;SDS011;4700;48.822;9.270;2022-09-12T13:04:11;2.27;;;1.57;;
9322;SDS011;4700;48.822;9.270;2022-09-12T13:07:01;1.37;;;1.20;;
9322;SDS011;4700;48.822;9.270;2022-09-12T13:09:49;12.00;;;3.37;;
9322;SDS011;4700;48.822;9.270;2022-09-12T13:12:41;4.87;;;2.00;;
9322;SDS011;4700;48.822;9.270;2022-09-12T13:18:39;13.40;;;7.63;;
9322;SDS011;4700;48.822;9.270;2022-09-12T13:21:27;19.40;;;8.30;;
9322;SDS011;4700;48.822;9.270;2022-09-12T13:24:13;4.77;;;2.40;;
9322;SDS011;4700;48.822;9.270;2022-09-12T13:27:01;3.43;;;1.90;;
9322;SDS011;4700;48.822;9.270;2022-09-12T13:29:47;21.33;;;7.60;;
9322;SDS011;4700;48.822;9.270;2022-09-12T13:32:35;2.93;;;1.73;;
9322;SDS011;4700;48.822;9.270;2022-09-12T13:35:21;1.40;;;1.23;;
9322;SDS011;4700;48.822;9.270;2022-09-12T13:38:18;2.37;;;1.50;;
9322;SDS011;4700;48.822;9.270;2022-09-12T13:41:19;5.43;;;2.30;;
9322;SDS011;4700;48.822;9.270;2022-09-12T13:44:18;2.90;;;2.10;;
9322;SDS011;4700;48.822;9.270;2022-09-12T13:47:06;3.63;;;1.50;;
9322;SDS011;4700;48.822;9.270;2022-09-12T13:49:58;1.57;;;1.47;;
9322;SDS011;4700;48.822;9.270;2022-09-12T13:52:45;7.00;;;2.80;;
9322;SDS011;4700;48.822;9.270;2022-09-12T13:55:36;2.40;;;1.83;;
9322;SDS011;4700;48.822;9.270;2022-09-12T13:58:26;2.00;;;1.10;;
9322;SDS011;4700;48.822;9.270;2022-09-12T14:01:14;1.83;;;1.20;;
9322;SDS011;4700;48.822;9.270;2022-09-12T14:04:00;2.70;;;2.13;;
9322;SDS011;4700;48.822;9.270;2022-09-12T14:07:13;2.90;;;2.37;;
9322;SDS011;4700;48.822;9.270;2022-09-12T14:10:03;3.77;;;1.70;;
9322;SDS011;4700;48.822;9.270;2022-09-12T14:12:50;10.43;;;5.03;;
9322;SDS011;4700;48.822;9.270;2022-09-12T14:15:36;4.13;;;1.57;;
9322;SDS011;4700;48.822;9.270;2022-09-12T14:18:23;3.30;;;2.53;;
9322;SDS011;4700;48.822;9.270;2022-09-12T14:21:15;2.07;;;1.77;;
9322;SDS011;4700;48.822;9.270;2022-09-12T14:24:15;4.30;;;2.80;;
9322;SDS011;4700;48.822;9.270;2022-09-12T14:27:05;2.03;;;1.83;;
9322;SDS011;4700;48.822;9.270;2022-09-12T14:29:51;5.10;;;1.90;;
9322;SDS011;4700;48.822;9.270;2022-09-12T14:32:58;4.00;;;1.40;;
9322;SDS011;4700;48.822;9.270;2022-09-12T14:35:47;2.07;;;1.97;;
9322;SDS011;4700;48.822;9.270;2022-09-12T14:38:39;6.47;;;3.23;;
9322;SDS011;4700;48.822;9.270;2022-09-12T14:41:28;7.20;;;4.10;;
9322;SDS011;4700;48.822;9.270;2022-09-12T14:44:17;1.43;;;1.33;;
9322;SDS011;4700;48.822;9.270;2022-09-12T14:47:12;2.20;;;1.77;;
9322;SDS011;4700;48.822;9.270;2022-09-12T14:50:02;1.27;;;1.17;;
9322;SDS011;4700;48.822;9.270;2022-09-12T14:53:03;5.07;;;2.80;;
9322;SDS011;4700;48.822;9.270;2022-09-12T14:55:51;7.80;;;3.23;;
9322;SDS011;4700;48.822;9.270;2022-09-12T14:58:43;3.00;;;1.70;;
9322;SDS011;4700;48.822;9.270;2022-09-12T15:01:29;2.00;;;1.40;;
9322;SDS011;4700;48.822;9.270;2022-09-12T15:07:29;0.70;;;0.70;;
9322;SDS011;4700;48.822;9.270;2022-09-12T15:10:18;1.23;;;1.00;;
9322;SDS011;4700;48.822;9.270;2022-09-12T15:13:14;1.40;;;1.27;;
9322;SDS011;4700;48.822;9.270;2022-09-12T15:16:08;6.63;;;3.43;;
9322;SDS011;4700;48.822;9.270;2022-09-12T15:18:56;5.23;;;2.57;;
9322;SDS011;4700;48.822;9.270;2022-09-12T15:21:44;7.40;;;4.77;;
9322;SDS011;4700;48.822;9.270;2022-09-12T15:24:30;3.10;;;2.67;;
9322;SDS011;4700;48.822;9.270;2022-09-12T15:27:17;7.20;;;3.50;;
9322;SDS011;4700;48.822;9.270;2022-09-12T15:30:03;2.50;;;2.30;;
9322;SDS011;4700;48.822;9.270;2022-09-12T15:32:50;1.50;;;1.40;;
9322;SDS011;4700;48.822;9.270;2022-09-12T15:35:37;1.30;;;1.20;;
9322;SDS011;4700;48.822;9.270;2022-09-12T15:38:25;1.47;;;1.37;;
9322;SDS011;4700;48.822;9.270;2022-09-12T15:41:12;4.40;;;2.53;;
9322;SDS011;4700;48.822;9.270;2022-09-12T15:44:00;4.33;;;2.00;;
9322;SDS011;4700;48.822;9.270;2022-09-12T15:46:47;5.87;;;1.87;;
9322;SDS011;4700;48.822;9.270;2022-09-12T15:49:34;4.80;;;3.03;;
9322;SDS011;4700;48.822;9.270;2022-09-12T15:52:20;3.43;;;2.90;;
9322;SDS011;4700;48.822;9.270;2022-09-12T15:55:09;6.23;;;1.57;;
9322;SDS011;4700;48.822;9.270;2022-09-12T15:57:59;3.13;;;1.80;;
9322;SDS011;4700;48.822;9.270;2022-09-12T16:00:45;1.60;;;1.50;;
9322;SDS011;4700;48.822;9.270;2022-09-12T16:03:30;1.50;;;1.40;;
9322;SDS011;4700;48.822;9.270;2022-09-12T16:06:20;1.73;;;1.63;;
9322;SDS011;4700;48.822;9.270;2022-09-12T16:09:06;1.90;;;1.43;;
9322;SDS011;4700;48.822;9.270;2022-09-12T16:11:52;2.30;;;1.57;;
9322;SDS011;4700;48.822;9.270;2022-09-12T16:14:40;1.67;;;1.57;;
9322;SDS011;4700;48.822;9.270;2022-09-12T16:17:26;1.50;;;1.30;;
9322;SDS011;4700;48.822;9.270;2022-09-12T16:20:12;1.20;;;1.10;;
9322;SDS011;4700;48.822;9.270;2022-09-12T16:23:00;1.80;;;1.30;;
9322;SDS011;4700;48.822;9.270;2022-09-12T16:25:54;1.60;;;1.50;;
9322;SDS011;4700;48.822;9.270;2022-09-12T16:28:40;3.00;;;1.40;;
9322;SDS011;4700;48.822;9.270;2022-09-12T16:31:27;1.70;;;1.60;;
9322;SDS011;4700;48.822;9.270;2022-09-12T16:34:13;2.43;;;1.80;;
9322;SDS011;4700;48.822;9.270;2022-09-12T16:36:59;2.20;;;1.50;;
9322;SDS011;4700;48.822;9.270;2022-09-12T16:39:47;4.80;;;1.97;;
9322;SDS011;4700;48.822;9.270;2022-09-12T16:42:32;2.10;;;1.57;;
9322;SDS011;4700;48.822;9.270;2022-09-12T16:45:18;2.60;;;2.17;;
9322;SDS011;4700;48.822;9.270;2022-09-12T16:48:00;1.80;;;1.70;;
9322;SDS011;4700;48.822;9.270;2022-09-12T16:50:54;2.20;;;1.90;;
9322;SDS011;4700;48.822;9.270;2022-09-12T16:53:41;1.77;;;1.67;;
9322;SDS011;4700;48.822;9.270;2022-09-12T16:56:28;1.70;;;1.60;;
9322;SDS011;4700;48.822;9.270;2022-09-12T16:59:14;1.73;;;1.63;;
9322;SDS011;4700;48.822;9.270;2022-09-12T17:02:00;2.10;;;1.90;;
9322;SDS011;4700;48.822;9.270;2022-09-12T17:04:46;1.87;;;1.67;;
9322;SDS011;4700;48.822;9.270;2022-09-12T17:07:32;2.63;;;2.40;;
9322;SDS011;4700;48.822;9.270;2022-09-12T17:10:17;2.03;;;1.80;;
9322;SDS011;4700;48.822;9.270;2022-09-12T17:13:04;1.80;;;1.70;;
9322;SDS011;4700;48.822;9.270;2022-09-12T17:15:50;1.80;;;1.70;;
9322;SDS011;4700;48.822;9.270;2022-09-12T17:18:36;2.47;;;2.00;;
9322;SDS011;4700;48.822;9.270;2022-09-12T17:21:21;2.20;;;2.00;;
9322;SDS011;4700;48.822;9.270;2022-09-12T17:24:07;2.80;;;2.00;;
9322;SDS011;4700;48.822;9.270;2022-09-12T17:26:55;1.80;;;1.70;;
9322;SDS011;4700;48.822;9.270;2022-09-12T17:29:43;5.70;;;2.10;;
9322;SDS011;4700;48.822;9.270;2022-09-12T17:32:29;5.10;;;2.37;;
9322;SDS011;4700;48.822;9.270;2022-09-12T17:35:14;2.80;;;2.20;;
9322;SDS011;4700;48.822;9.270;2022-09-12T17:38:00;2.43;;;2.17;;
9322;SDS011;4700;48.822;9.270;2022-09-12T17:40:46;2.40;;;2.20;;
9322;SDS011;4700;48.822;9.270;2022-09-12T17:43:31;1.83;;;1.73;;
9322;SDS011;4700;48.822;9.270;2022-09-12T17:46:19;2.80;;;2.33;;
9322;SDS011;4700;48.822;9.270;2022-09-12T17:49:05;3.00;;;2.80;;
9322;SDS011;4700;48.822;9.270;2022-09-12T17:51:52;2.63;;;2.43;;
9322;SDS011;4700;48.822;9.270;2022-09-12T17:54:38;3.03;;;2.53;;